UBBB Airport Information

Runway Information
Runway 16 Length 8858 ft width 197 ft
Elevation 0 ft Threshold 0 ft Heading 160
Runway 34 Length 8858 ft Width 197 ft
Elevation 0 ft Threshold 0 ft Heading 340
Runway 18 Length 10499 ft width 167 ft
Elevation 10 ft Threshold 0 ft Heading 180
Runway 36 Length 10499 ft Width 167 ft
Elevation 0 ft Threshold 444 ft Heading 360
Airport Frequencies
Type APP Name BAKU APP Frequency 129.3 MHZ
Type ATIS Name BAKU ATIS Frequency 126.8 MHZ
Type GCA Name BAKU PRECI Frequency 119.2 MHZ
Type GND Name BAKU GND Frequency 121.7 MHZ
Type RDR Name BAKU RADAR Frequency 120.8 MHZ
Type TWR Name BAKU TWR Frequency 119.2 MHZ
Airport Navaids
Type NDB Name Baku Frequency 470 KHZ
Type NDB Name Baku Frequency 360 KHZ
Type NDB Name Baku Frequency 515 KHZ
Type VOR-DME Name Baku Frequency 114100 KHZ
Type NDB Name Nakhchivan Frequency 493 KHZ
Airport Weather Information & NOTAM
ADDS - METARS form results

(2020 UTC 22 July 2018)
 
METAR text: UBBB 222000Z 35009KT 9999 FEW060CB BKN100 28/21 Q1005 R88/D TEMPO TS
Conditions at: UBBB (BAKU/BINE ARPT , AZ) observed 2000 UTC 22 July 2018
Temperature: 28.0°C (82°F)
Dewpoint: 21.0°C (70°F) [RH = 66%]
Pressure (altimeter): 29.68 inches Hg (1005.0 mb)
Winds: from the N (350 degrees) at 10 MPH (9 knots; 4.7 m/s)
Visibility: 6 or more miles (10+ km)
Ceiling: 10000 feet AGL
Clouds: few clouds at 6000 feet AGL
broken clouds at 10000 feet AGL
Weather: no significant weather observed at this time

METAR text: UBBB 221930Z 35008KT 9999 FEW060CB BKN100 27/22 Q1005 R88/D TEMPO TS
Conditions at: UBBB (BAKU/BINE ARPT , AZ) observed 1930 UTC 22 July 2018
Temperature: 27.0°C (81°F)
Dewpoint: 22.0°C (72°F) [RH = 74%]
Pressure (altimeter): 29.68 inches Hg (1005.0 mb)
Winds: from the N (350 degrees) at 9 MPH (8 knots; 4.2 m/s)
Visibility: 6 or more miles (10+ km)
Ceiling: 10000 feet AGL
Clouds: few clouds at 6000 feet AGL
broken clouds at 10000 feet AGL
Weather: no significant weather observed at this time